Terminal Aerodrome Forecast
Issued by NWS

Home | Current Version | Previous Version | Text Only | Print | Product List | Glossary On
Versions: 1 2 3 4 5 6 7 8 9 10 11 12
000
FTUS45 KVEF 180500
TAFBIH
TAF
KBIH 180520Z 1806/1906 34008KT P6SM BKN200
     FM181900 17009KT P6SM SCT100 BKN150
     FM182200 17009KT P6SM VCTS SCT100CB BKN150
      TEMPO 1822/1902 BKN100CB
     FM190200 15008KT P6SM BKN150=

USA.gov is the U.S. government's official web portal to all federal, state and local government web resources and services.